Terminal Aerodrome Forecast
Issued by NWS Louisville, KY

Home | Current Version | Previous Version | Text Only | Print | Product List | Glossary On
Versions: 1 2 3 4 5 6 7 8 9 10 11 12 13 14 15 16 17 18 19 20
000
FTUS43 KLMK 182325
TAFLEX
TAF
KLEX 182325Z 1900/1924 21006KT P6SM VCSH BKN040
     FM190400 21005KT 4SM BR OVC011
     FM190900 22005KT 2SM BR OVC007
     FM191600 25004KT 6SM BR OVC015
     FM192000 24004KT P6SM BKN028=

USA.gov is the U.S. government's official web portal to all federal, state and local government web resources and services.